KFNT/FNT METAR and TAF weather

Enter ICAO airport designator
Station Type Date Time Source
KFNT METAR 2022/11/27 08:53 UTC NOAA

KFNT 270853Z AUTO 17004KT 10SM CLR 04/M03 A2969 RMK AO2 PRESFR SLP058 T00391033 58027


Station Type Date Time Source
KFNT Decoded METAR 2022/11/27 08:53 UTC NOAA

FLINT BISHOP INTERNATIONAL AIRPORT, MI, United States (KFNT) 42-58N 83-45W 233M
Nov 27, 2022 - 03:53 AM EST / 2022.11.27 0853 UTC
Wind: from the S (170 degrees) at 5 MPH (4 KT):0
Visibility: 10 mile(s):0
Sky conditions: clear
Temperature: 39.0 F (3.9 C)
Dew Point: 26.1 F (-3.3 C)
Relative Humidity: 59%
Pressure (altimeter): 29.69 in. Hg (1005 hPa)
Pressure tendency: falling rapidly - 0.08 inches (2.7 hPa) lower than three hours ago
ob: KFNT 270853Z AUTO 17004KT 10SM CLR 04/M03 A2969 RMK AO2 PRESFR SLP058 T00391033 58027
cycle: 9

Station Type Date Time Source
KFNT TAF 2022/11/27 06:36 UTC NOAA

TAF KFNT 270535Z 2706/2806 22007KT P6SM OVC200
FM271000 16005KT P6SM OVC120
FM271500 09009KT 6SM -SHRA OVC045
FM271700 04013G20KT 3SM RA BR SCT008 OVC025
FM272000 36012KT 2SM -RA SCT008 OVC012
FM280300 31009KT P6SM SCT015 BKN025

Example: see airport list